Time;durP1;ratioP1;P1;durP2;ratioP2;P2;SDS_P1;SDS_P2;PMS_P1;PMS_P2;Temp;Humidity;BMP_temperature;BMP_pressure;BME280_temperature;BME280_humidity;BME280_pressure;Samples;Min_cycle;Max_cycle;Signal;HPM_P1;HPM_P2
2021/10/30 00:01:30;;;;;;;12.95;7.80;;;9.60;99.90;;;;;;4961854;28;20027;-66
2021/10/30 00:03:57;;;;;;;10.70;6.72;;;9.60;99.90;;;;;;4979001;28;20073;-66
2021/10/30 00:06:24;;;;;;;14.20;8.13;;;9.50;99.90;;;;;;4961713;28;20026;-66
2021/10/30 00:08:52;;;;;;;15.35;8.20;;;9.50;99.90;;;;;;4980316;28;20023;-66
2021/10/30 00:11:19;;;;;;;12.73;8.07;;;9.50;99.90;;;;;;4979960;28;20062;-66
2021/10/30 00:13:46;;;;;;;14.43;8.18;;;9.40;99.90;;;;;;4979763;28;20033;-66
2021/10/30 00:16:14;;;;;;;15.30;7.93;;;9.40;99.90;;;;;;4980080;28;20077;-66
2021/10/30 00:18:42;;;;;;;15.77;7.30;;;9.40;99.90;;;;;;4979485;28;20023;-66
2021/10/30 00:21:09;;;;;;;12.68;7.82;;;9.40;99.90;;;;;;4979466;28;20030;-66
2021/10/30 00:23:36;;;;;;;11.85;7.22;;;9.40;99.90;;;;;;4979357;28;20030;-66
2021/10/30 00:26:04;;;;;;;15.57;8.07;;;9.30;99.90;;;;;;4979887;28;20033;-66
2021/10/30 00:28:32;;;;;;;13.70;7.97;;;9.30;99.90;;;;;;4979234;28;20081;-66
2021/10/30 00:31:00;;;;;;;15.55;8.52;;;9.20;99.90;;;;;;4978454;28;20062;-66
2021/10/30 00:33:28;;;;;;;12.70;6.97;;;9.20;99.90;;;;;;4978254;28;20431;-66
2021/10/30 00:35:56;;;;;;;15.57;8.10;;;9.10;99.90;;;;;;4978239;28;20027;-66
2021/10/30 00:38:23;;;;;;;12.30;7.20;;;9.20;99.90;;;;;;4978458;28;20050;-66
2021/10/30 00:40:51;;;;;;;14.57;7.15;;;9.10;99.90;;;;;;4978019;28;20047;-66
2021/10/30 00:43:19;;;;;;;12.25;7.28;;;9.10;99.90;;;;;;4961046;28;20019;-66
2021/10/30 00:45:47;;;;;;;10.32;7.43;;;9.10;99.90;;;;;;4978483;28;20015;-66
2021/10/30 00:48:16;;;;;;;13.23;7.32;;;9.10;99.90;;;;;;4978244;28;20029;-66
2021/10/30 00:50:44;;;;;;;14.15;8.00;;;9.10;99.90;;;;;;4978684;28;20078;-66
2021/10/30 00:53:12;;;;;;;12.95;6.88;;;9.00;99.90;;;;;;4979476;28;20023;-66
2021/10/30 00:55:42;;;;;;;17.13;7.65;;;9.00;99.90;;;;;;4962035;28;20423;-66
2021/10/30 00:58:14;;;;;;;12.60;7.18;;;9.00;99.90;;;;;;4978891;28;20034;-66
2021/10/30 01:00:41;;;;;;;13.68;8.00;;;9.00;99.90;;;;;;4961724;28;20439;-66
2021/10/30 01:03:08;;;;;;;12.40;7.18;;;9.00;99.90;;;;;;4979295;28;20023;-66
2021/10/30 01:05:35;;;;;;;13.27;7.32;;;8.90;99.90;;;;;;4978781;28;20027;-66
2021/10/30 01:08:04;;;;;;;13.65;7.50;;;8.90;99.90;;;;;;4961599;28;20034;-66
2021/10/30 01:10:32;;;;;;;11.52;7.10;;;8.90;99.90;;;;;;4978059;28;20029;-66
2021/10/30 01:12:59;;;;;;;18.77;7.40;;;8.90;99.90;;;;;;4978126;28;20034;-66
2021/10/30 01:15:26;;;;;;;15.35;7.63;;;8.90;99.90;;;;;;4960498;28;20062;-66
2021/10/30 01:17:54;;;;;;;15.48;8.75;;;8.80;99.90;;;;;;4977876;28;20019;-66
2021/10/30 01:20:25;;;;;;;14.82;7.90;;;8.80;99.90;;;;;;4978197;28;20303;-66
2021/10/30 01:23:01;;;;;;;14.63;7.95;;;8.80;99.90;;;;;;4977672;28;20059;-66
2021/10/30 01:25:29;;;;;;;14.02;7.35;;;8.80;99.90;;;;;;4960519;28;20118;-66
2021/10/30 01:27:59;;;;;;;13.85;7.00;;;8.80;99.90;;;;;;4977690;28;20468;-66
2021/10/30 01:30:27;;;;;;;11.98;6.70;;;8.80;99.90;;;;;;4978096;28;20031;-66
2021/10/30 01:33:00;;;;;;;14.18;7.32;;;8.80;99.90;;;;;;4978603;28;20022;-66
2021/10/30 01:35:36;;;;;;;13.70;7.00;;;8.90;99.90;;;;;;4979319;28;20026;-66
2021/10/30 01:38:05;;;;;;;13.40;6.90;;;8.80;99.90;;;;;;4982553;28;20034;-66
2021/10/30 01:40:50;;;;;;;14.38;7.68;;;8.80;99.90;;;;;;4982335;28;20342;-66
2021/10/30 01:43:18;;;;;;;13.95;7.88;;;8.90;99.90;;;;;;4982569;28;20023;-66
2021/10/30 01:45:45;;;;;;;13.52;7.35;;;8.90;99.90;;;;;;4965854;28;20069;-66
2021/10/30 01:48:13;;;;;;;13.52;7.38;;;8.90;99.90;;;;;;4982782;28;20019;-66
2021/10/30 01:50:41;;;;;;;13.45;7.78;;;8.90;99.90;;;;;;4982586;28;20022;-66
2021/10/30 01:53:10;;;;;;;14.90;8.15;;;8.90;99.90;;;;;;4981788;28;20026;-66
2021/10/30 01:55:39;;;;;;;15.65;8.35;;;8.90;99.90;;;;;;4981200;28;20498;-66
2021/10/30 01:58:07;;;;;;;16.02;7.57;;;9.00;99.90;;;;;;4981810;28;20435;-66
2021/10/30 02:00:36;;;;;;;13.07;7.85;;;9.00;99.90;;;;;;4981195;28;20030;-66
2021/10/30 02:03:03;;;;;;;18.65;7.85;;;9.00;99.90;;;;;;4981277;28;20019;-66
2021/10/30 02:05:31;;;;;;;14.23;8.35;;;9.10;99.90;;;;;;4981123;28;20027;-66
2021/10/30 02:07:59;;;;;;;13.13;7.47;;;9.10;99.90;;;;;;4981102;28;20023;-66
2021/10/30 02:10:27;;;;;;;14.77;8.13;;;9.10;99.90;;;;;;4980995;28;20043;-66
2021/10/30 02:12:54;;;;;;;13.23;7.50;;;9.10;99.90;;;;;;4980935;28;20057;-66
2021/10/30 02:15:23;;;;;;;17.25;8.40;;;9.10;99.90;;;;;;4981112;28;20023;-66
2021/10/30 02:17:50;;;;;;;13.02;7.75;;;9.00;99.90;;;;;;4964505;28;20027;-66
2021/10/30 02:20:19;;;;;;;14.63;8.15;;;8.90;99.90;;;;;;4981760;28;20107;-66
2021/10/30 02:22:51;;;;;;;14.73;7.85;;;8.90;99.90;;;;;;4982203;28;20043;-66
2021/10/30 02:25:21;;;;;;;13.48;7.70;;;8.90;99.90;;;;;;4981450;28;20105;-66
2021/10/30 02:27:49;;;;;;;14.85;8.48;;;8.80;99.90;;;;;;4981693;28;20391;-66
2021/10/30 02:30:17;;;;;;;15.07;8.27;;;8.80;99.90;;;;;;4981748;28;20089;-66
2021/10/30 02:32:45;;;;;;;12.90;7.97;;;8.80;99.90;;;;;;4981966;28;20030;-66
2021/10/30 02:35:13;;;;;;;16.10;8.82;;;8.80;99.90;;;;;;4980791;28;20038;-66
2021/10/30 02:37:41;;;;;;;15.52;8.73;;;8.80;99.90;;;;;;4980518;28;20019;-66
2021/10/30 02:40:09;;;;;;;16.27;8.80;;;8.90;99.90;;;;;;4980340;28;20050;-66
2021/10/30 02:42:38;;;;;;;17.00;9.15;;;9.00;99.90;;;;;;4963223;28;20023;-66
2021/10/30 02:45:06;;;;;;;19.88;8.88;;;9.10;99.90;;;;;;4980400;28;20027;-66
2021/10/30 02:47:34;;;;;;;16.48;8.15;;;9.20;99.90;;;;;;4980283;28;20423;-66
2021/10/30 02:50:01;;;;;;;15.63;8.95;;;9.20;99.90;;;;;;4980430;28;20062;-66
2021/10/30 02:52:29;;;;;;;13.70;8.15;;;9.30;99.90;;;;;;4980152;28;20368;-66
2021/10/30 02:54:56;;;;;;;14.63;8.02;;;9.30;99.90;;;;;;4963759;28;20304;-66
2021/10/30 02:57:24;;;;;;;13.40;8.52;;;9.40;99.90;;;;;;4980356;28;20042;-66
2021/10/30 02:59:51;;;;;;;18.13;8.68;;;9.40;99.90;;;;;;4981115;28;20077;-66
2021/10/30 03:02:18;;;;;;;14.73;8.30;;;9.50;99.90;;;;;;4980894;28;20026;-66
2021/10/30 03:04:45;;;;;;;13.55;6.75;;;9.50;99.90;;;;;;4981005;28;20038;-66
2021/10/30 03:07:13;;;;;;;14.73;7.85;;;9.50;99.90;;;;;;4981374;28;20031;-66
2021/10/30 03:09:41;;;;;;;13.25;7.93;;;9.50;99.90;;;;;;4981027;28;20034;-66
2021/10/30 03:12:08;;;;;;;12.52;7.43;;;9.50;99.90;;;;;;4981302;28;20034;-66
2021/10/30 03:14:35;;;;;;;13.13;8.07;;;9.40;99.90;;;;;;4981047;28;20367;-66
2021/10/30 03:17:04;;;;;;;16.65;8.23;;;9.40;99.90;;;;;;4980750;28;20053;-66
2021/10/30 03:19:32;;;;;;;14.90;7.53;;;9.30;99.90;;;;;;4979849;28;20031;-66
2021/10/30 03:21:59;;;;;;;15.13;7.97;;;9.20;99.90;;;;;;4979655;28;20419;-66
2021/10/30 03:24:27;;;;;;;15.27;6.97;;;9.20;99.90;;;;;;4979601;28;20367;-66
2021/10/30 03:26:54;;;;;;;14.82;8.32;;;9.10;99.90;;;;;;4980204;28;20029;-66
2021/10/30 03:29:21;;;;;;;12.75;7.10;;;9.10;99.90;;;;;;4979574;28;20023;-66
2021/10/30 03:31:49;;;;;;;16.13;7.95;;;9.10;99.90;;;;;;4980034;28;20018;-66
2021/10/30 03:34:16;;;;;;;14.60;8.32;;;9.00;99.90;;;;;;4980407;28;20311;-66
2021/10/30 03:36:44;;;;;;;15.10;7.57;;;9.00;99.90;;;;;;4979466;28;20030;-66
2021/10/30 03:39:11;;;;;;;14.07;8.05;;;9.00;99.90;;;;;;4979317;28;20425;-66
2021/10/30 03:41:39;;;;;;;15.15;7.47;;;9.00;99.90;;;;;;4979838;28;20055;-66
2021/10/30 03:44:07;;;;;;;16.83;8.65;;;9.00;99.90;;;;;;4980342;28;20367;-66
2021/10/30 03:46:35;;;;;;;14.65;7.57;;;9.00;99.90;;;;;;4980642;28;20023;-66
2021/10/30 03:49:02;;;;;;;12.45;7.60;;;9.00;99.90;;;;;;4980300;28;20102;-66
2021/10/30 03:51:29;;;;;;;14.60;7.53;;;9.00;99.90;;;;;;4962924;28;20027;-66
2021/10/30 03:53:57;;;;;;;14.90;7.68;;;8.90;99.90;;;;;;4980031;28;20023;-66
2021/10/30 03:56:25;;;;;;;12.20;7.05;;;8.90;99.90;;;;;;4979989;28;20391;-66
2021/10/30 03:58:52;;;;;;;19.10;8.55;;;8.90;99.90;;;;;;4979346;28;20114;-66
2021/10/30 04:01:20;;;;;;;12.73;7.55;;;8.90;99.90;;;;;;4979696;28;20026;-66
2021/10/30 04:03:47;;;;;;;12.45;7.60;;;8.90;99.90;;;;;;4978904;28;20050;-66
2021/10/30 04:06:15;;;;;;;12.43;7.28;;;8.80;99.90;;;;;;4978882;28;20023;-66
2021/10/30 04:08:44;;;;;;;13.88;7.85;;;8.80;99.90;;;;;;4961787;28;20117;-66
2021/10/30 04:11:12;;;;;;;13.18;7.43;;;8.70;99.90;;;;;;4979243;28;20343;-66
2021/10/30 04:13:39;;;;;;;15.85;8.52;;;8.70;99.90;;;;;;4978694;28;20030;-66
2021/10/30 04:16:06;;;;;;;14.65;7.95;;;8.70;99.90;;;;;;4978704;28;20050;-66
2021/10/30 04:18:34;;;;;;;16.35;7.47;;;8.70;99.90;;;;;;4978775;28;20061;-66
2021/10/30 04:21:02;;;;;;;12.88;7.63;;;8.70;99.90;;;;;;4978637;28;20019;-66
2021/10/30 04:23:29;;;;;;;12.93;7.13;;;8.60;99.90;;;;;;4978902;28;20022;-66
2021/10/30 04:25:57;;;;;;;12.77;7.88;;;8.60;99.90;;;;;;4979334;28;20023;-66
2021/10/30 04:28:25;;;;;;;15.48;7.60;;;8.50;99.90;;;;;;4979544;28;20026;-66
2021/10/30 04:30:52;;;;;;;13.05;7.35;;;8.50;99.90;;;;;;4979374;28;20027;-66
2021/10/30 04:33:20;;;;;;;15.40;7.28;;;8.50;99.90;;;;;;4979253;28;20046;-66
2021/10/30 04:35:48;;;;;;;11.75;6.68;;;8.50;99.90;;;;;;4979811;28;20031;-66
2021/10/30 04:38:15;;;;;;;20.27;7.97;;;8.40;99.90;;;;;;4979847;28;20048;-66
2021/10/30 04:40:43;;;;;;;17.63;7.32;;;8.40;99.90;;;;;;4978985;28;20443;-66
2021/10/30 04:43:11;;;;;;;12.98;7.78;;;8.40;99.90;;;;;;4979258;28;20027;-66
2021/10/30 04:45:42;;;;;;;13.80;7.18;;;8.40;99.90;;;;;;4978180;28;20416;-65
2021/10/30 04:48:10;;;;;;;15.18;7.75;;;8.40;99.90;;;;;;4978247;28;20038;-66
2021/10/30 04:50:40;;;;;;;16.98;7.95;;;8.30;99.90;;;;;;4978383;28;20023;-66
2021/10/30 04:53:08;;;;;;;13.52;6.40;;;8.40;99.90;;;;;;4978125;28;20042;-66
2021/10/30 04:55:35;;;;;;;12.35;6.53;;;8.40;99.90;;;;;;4978239;28;20079;-66
2021/10/30 04:58:03;;;;;;;13.00;7.45;;;8.30;99.90;;;;;;4978729;28;20015;-66
2021/10/30 05:00:30;;;;;;;13.15;6.80;;;8.30;99.90;;;;;;4977925;28;20023;-66
2021/10/30 05:02:58;;;;;;;13.20;7.45;;;8.30;99.90;;;;;;4960735;28;20026;-66
2021/10/30 05:05:26;;;;;;;13.68;6.95;;;8.30;99.90;;;;;;4977888;28;20030;-66
2021/10/30 05:07:53;;;;;;;13.15;6.70;;;8.30;99.90;;;;;;4978550;28;20054;-66
2021/10/30 05:10:20;;;;;;;12.85;6.60;;;8.30;99.90;;;;;;4978915;28;20093;-66
2021/10/30 05:12:47;;;;;;;13.50;7.40;;;8.20;99.90;;;;;;4978713;28;20019;-66
2021/10/30 05:15:15;;;;;;;12.75;7.22;;;8.20;99.90;;;;;;4978802;28;20031;-66
2021/10/30 05:17:42;;;;;;;11.35;6.50;;;8.20;99.90;;;;;;4978543;28;20050;-66
2021/10/30 05:20:10;;;;;;;13.10;6.20;;;8.20;99.90;;;;;;4961578;28;20031;-66
2021/10/30 05:22:38;;;;;;;10.52;6.00;;;8.20;99.90;;;;;;4978591;28;20078;-65
2021/10/30 05:25:06;;;;;;;12.48;6.45;;;8.20;99.90;;;;;;4978879;28;20058;-66
2021/10/30 05:27:34;;;;;;;10.38;6.25;;;8.20;99.90;;;;;;4977880;28;20029;-66
2021/10/30 05:30:01;;;;;;;15.90;6.07;;;8.20;99.90;;;;;;4977802;28;20031;-66
2021/10/30 05:32:29;;;;;;;9.90;6.47;;;8.10;99.90;;;;;;4977899;28;20106;-66
2021/10/30 05:34:56;;;;;;;12.95;6.57;;;8.20;99.90;;;;;;4977543;28;20027;-66
2021/10/30 05:37:24;;;;;;;9.13;5.32;;;8.10;99.90;;;;;;4978049;28;20023;-66
2021/10/30 05:39:52;;;;;;;20.45;7.68;;;8.10;99.90;;;;;;4977888;28;20047;-66
2021/10/30 05:42:20;;;;;;;9.77;5.55;;;8.10;99.90;;;;;;4977970;28;20027;-66
2021/10/30 05:44:47;;;;;;;8.48;5.03;;;8.10;99.90;;;;;;4978110;28;20058;-66
2021/10/30 05:47:15;;;;;;;8.45;5.38;;;8.00;99.90;;;;;;4977342;28;20023;-66
2021/10/30 05:49:44;;;;;;;12.25;6.60;;;8.00;99.90;;;;;;4977927;28;20030;-65
2021/10/30 05:52:12;;;;;;;9.70;4.72;;;8.00;99.90;;;;;;4960909;28;20312;-66
2021/10/30 05:54:39;;;;;;;8.68;5.22;;;8.00;99.90;;;;;;4978057;28;20027;-65
2021/10/30 05:57:11;;;;;;;13.25;6.68;;;8.00;99.90;;;;;;4961052;28;20424;-65
2021/10/30 05:59:39;;;;;;;14.32;7.05;;;8.00;99.90;;;;;;4978939;28;20023;-66
2021/10/30 06:02:11;;;;;;;10.88;5.18;;;8.10;99.90;;;;;;4978059;28;20102;-71
2021/10/30 06:04:42;;;;;;;9.38;5.15;;;8.10;99.90;;;;;;4960931;28;20105;-70
2021/10/30 06:07:10;;;;;;;9.20;5.18;;;8.10;99.90;;;;;;4978118;28;20027;-70
2021/10/30 06:09:38;;;;;;;13.50;6.30;;;8.10;99.90;;;;;;4978021;28;20051;-71
2021/10/30 06:12:06;;;;;;;12.27;5.72;;;8.20;99.90;;;;;;4977250;28;20033;-70
2021/10/30 06:14:33;;;;;;;9.48;4.75;;;8.20;99.90;;;;;;4977172;28;20030;-70
2021/10/30 06:17:01;;;;;;;9.05;4.90;;;8.30;99.90;;;;;;4977167;28;20019;-70
2021/10/30 06:19:28;;;;;;;7.72;4.50;;;8.30;99.90;;;;;;4960049;28;20034;-71
2021/10/30 06:21:57;;;;;;;8.80;4.93;;;8.50;99.90;;;;;;4979024;28;20027;-70
2021/10/30 06:24:25;;;;;;;8.35;5.05;;;8.50;99.90;;;;;;4980700;28;20069;-70
2021/10/30 06:26:53;;;;;;;10.10;5.22;;;8.60;99.90;;;;;;4981038;28;20061;-71
2021/10/30 06:29:21;;;;;;;7.50;4.65;;;8.60;99.90;;;;;;4981270;28;20027;-70
2021/10/30 06:31:49;;;;;;;9.77;5.10;;;8.70;99.90;;;;;;4963729;28;20085;-70
2021/10/30 06:34:17;;;;;;;9.07;4.53;;;8.70;99.90;;;;;;4964663;28;20037;-77
2021/10/30 06:36:44;;;;;;;8.07;4.28;;;8.80;99.90;;;;;;4981452;28;20041;-70
2021/10/30 06:39:12;;;;;;;8.90;4.60;;;8.80;99.90;;;;;;4964164;28;20027;-70
2021/10/30 06:41:39;;;;;;;9.57;4.93;;;8.90;99.90;;;;;;4981182;28;20047;-70
2021/10/30 06:44:07;;;;;;;12.73;5.95;;;9.00;99.90;;;;;;4981534;28;20027;-71
2021/10/30 06:46:34;;;;;;;11.45;5.47;;;9.00;99.90;;;;;;4981351;28;20027;-72
2021/10/30 06:49:01;;;;;;;10.25;5.55;;;9.10;99.90;;;;;;4981376;28;20058;-70
2021/10/30 06:51:29;;;;;;;9.60;4.85;;;9.10;99.90;;;;;;4963775;28;20023;-71
2021/10/30 06:53:57;;;;;;;6.85;4.13;;;9.20;99.90;;;;;;4979772;28;20327;-71
2021/10/30 06:56:25;;;;;;;9.88;4.97;;;9.30;99.90;;;;;;4979881;28;20336;-70
2021/10/30 06:58:53;;;;;;;12.85;5.20;;;9.30;99.90;;;;;;4980195;28;20014;-73
2021/10/30 07:01:21;;;;;;;9.00;4.93;;;9.40;99.90;;;;;;4962999;28;20057;-71
2021/10/30 07:03:49;;;;;;;7.93;5.38;;;9.40;99.90;;;;;;4963914;28;20022;-68
2021/10/30 07:06:17;;;;;;;8.88;5.03;;;9.50;99.90;;;;;;4980634;28;20027;-70
2021/10/30 07:08:44;;;;;;;14.52;5.65;;;9.50;99.90;;;;;;4980691;28;20022;-70
2021/10/30 07:11:12;;;;;;;12.43;5.88;;;9.60;99.90;;;;;;4980086;28;20025;-69
2021/10/30 07:13:39;;;;;;;34.03;7.55;;;9.60;99.90;;;;;;4980710;28;20022;-66
2021/10/30 07:16:06;;;;;;;13.00;5.03;;;9.70;99.90;;;;;;4981075;28;20047;-66
2021/10/30 07:18:34;;;;;;;10.25;4.25;;;9.80;99.90;;;;;;4963662;28;20030;-67
2021/10/30 07:21:01;;;;;;;11.88;4.90;;;9.90;99.90;;;;;;4981296;28;20018;-66
2021/10/30 07:23:29;;;;;;;10.23;5.72;;;10.00;99.90;;;;;;4981385;28;20105;-66
2021/10/30 07:25:56;;;;;;;6.45;3.88;;;10.10;99.90;;;;;;4981236;28;20019;-66
2021/10/30 07:28:23;;;;;;;7.88;4.15;;;10.20;99.90;;;;;;4963435;28;20045;-66
2021/10/30 07:30:51;;;;;;;6.82;4.22;;;10.20;99.90;;;;;;4981093;28;20022;-66
2021/10/30 07:33:18;;;;;;;6.47;3.78;;;10.30;99.90;;;;;;4979897;28;20025;-66
2021/10/30 07:35:45;;;;;;;8.70;4.32;;;10.40;99.90;;;;;;4980201;28;20400;-67
2021/10/30 07:38:12;;;;;;;6.03;3.88;;;10.50;99.90;;;;;;4979817;28;20073;-66
2021/10/30 07:40:39;;;;;;;11.55;5.00;;;10.50;99.90;;;;;;4979381;28;20101;-66
2021/10/30 07:43:07;;;;;;;9.75;5.38;;;10.60;99.90;;;;;;4962268;28;20165;-66
2021/10/30 07:45:35;;;;;;;9.63;4.40;;;10.60;99.90;;;;;;4980128;28;20360;-66
2021/10/30 07:48:03;;;;;;;8.60;5.07;;;10.70;99.90;;;;;;4979426;28;20331;-66
2021/10/30 07:50:31;;;;;;;9.10;4.65;;;10.80;99.90;;;;;;4979654;28;20031;-66
2021/10/30 07:53:01;;;;;;;8.05;3.92;;;10.80;99.90;;;;;;4979564;28;20031;-67
2021/10/30 07:55:29;;;;;;;8.68;3.95;;;10.90;99.90;;;;;;4979577;28;20478;-67
2021/10/30 07:57:57;;;;;;;5.93;3.17;;;11.00;99.90;;;;;;4980542;28;20372;-66
2021/10/30 08:00:26;;;;;;;8.05;4.07;;;11.10;99.90;;;;;;4980048;28;20023;-66
2021/10/30 08:02:54;;;;;;;6.80;3.22;;;11.10;99.90;;;;;;4980182;28;20095;-66
2021/10/30 08:05:23;;;;;;;8.20;3.83;;;11.10;99.90;;;;;;4979825;28;20054;-66
2021/10/30 08:07:51;;;;;;;7.68;3.85;;;11.20;99.90;;;;;;4980376;28;20421;-66
2021/10/30 08:10:21;;;;;;;7.43;3.28;;;11.20;99.90;;;;;;4979925;28;20030;-67
2021/10/30 08:12:50;;;;;;;5.82;3.50;;;11.30;99.90;;;;;;4979730;28;20037;-67
2021/10/30 08:15:18;;;;;;;7.57;3.47;;;11.30;99.90;;;;;;4962544;28;20122;-67
2021/10/30 08:17:46;;;;;;;6.07;3.08;;;11.30;99.90;;;;;;4979166;28;20098;-67
2021/10/30 08:20:14;;;;;;;8.35;3.75;;;11.30;99.90;;;;;;4979175;28;20023;-67
2021/10/30 08:22:42;;;;;;;8.05;3.47;;;11.40;99.90;;;;;;4979239;28;20327;-68
2021/10/30 08:25:10;;;;;;;5.40;3.20;;;11.30;99.90;;;;;;4978710;28;20047;-69
2021/10/30 08:27:38;;;;;;;5.50;3.70;;;11.40;99.90;;;;;;4978587;28;20103;-68
2021/10/30 08:30:07;;;;;;;6.80;3.55;;;11.30;99.90;;;;;;4978758;28;20034;-67
2021/10/30 08:32:35;;;;;;;7.65;4.35;;;11.30;99.90;;;;;;4978742;28;20026;-68
2021/10/30 08:35:03;;;;;;;6.10;3.15;;;11.30;99.90;;;;;;4961974;28;20109;-66
2021/10/30 08:37:30;;;;;;;6.25;3.05;;;11.30;99.90;;;;;;4978387;28;20019;-68
2021/10/30 08:39:59;;;;;;;6.57;3.90;;;11.30;99.90;;;;;;4978898;28;20045;-67
2021/10/30 08:42:26;;;;;;;7.22;3.67;;;11.30;99.90;;;;;;4979219;28;20085;-68
2021/10/30 08:44:55;;;;;;;6.15;3.55;;;11.30;99.90;;;;;;4979518;28;20086;-67
2021/10/30 08:47:24;;;;;;;8.93;3.75;;;11.30;99.90;;;;;;4979079;28;20035;-67
2021/10/30 08:49:54;;;;;;;6.70;3.78;;;11.30;99.90;;;;;;4962108;28;20058;-67
2021/10/30 08:52:21;;;;;;;8.05;4.15;;;11.40;99.90;;;;;;4979109;28;20077;-67
2021/10/30 08:54:49;;;;;;;5.95;3.80;;;11.40;99.90;;;;;;4961862;28;20395;-68
2021/10/30 08:57:17;;;;;;;7.80;4.18;;;11.40;99.90;;;;;;4961870;28;20069;-67
2021/10/30 08:59:47;;;;;;;8.35;4.68;;;11.40;99.90;;;;;;4961089;28;20339;-67
2021/10/30 09:02:31;;;;;;;9.15;4.45;;;11.40;99.90;;;;;;4978572;28;20391;-67
2021/10/30 09:05:20;;;;;;;8.52;3.90;;;11.40;99.90;;;;;;4978115;28;20064;-67
2021/10/30 09:08:11;;;;;;;8.20;4.15;;;11.40;99.90;;;;;;4977979;28;20030;-66
2021/10/30 09:10:49;;;;;;;8.80;5.03;;;11.50;99.90;;;;;;4977905;28;20022;-67
2021/10/30 09:13:22;;;;;;;8.98;4.70;;;11.50;99.90;;;;;;4960878;28;20027;-67
2021/10/30 09:15:52;;;;;;;7.60;4.65;;;11.60;99.90;;;;;;4977821;28;20030;-67
2021/10/30 09:18:35;;;;;;;7.40;4.47;;;11.70;99.90;;;;;;4960645;28;20442;-67
2021/10/30 09:21:07;;;;;;;9.95;5.03;;;11.70;99.90;;;;;;4978699;28;20411;-67
2021/10/30 09:23:37;;;;;;;8.43;4.57;;;11.70;99.90;;;;;;4978776;28;20023;-67
2021/10/30 09:26:07;;;;;;;8.75;4.65;;;11.80;99.90;;;;;;4978621;28;20125;-67
2021/10/30 09:28:37;;;;;;;8.23;5.15;;;11.80;99.90;;;;;;4961481;28;20019;-68
2021/10/30 09:31:10;;;;;;;8.82;5.20;;;11.80;99.90;;;;;;4978618;28;20026;-67
2021/10/30 09:33:49;;;;;;;10.23;5.55;;;11.90;99.90;;;;;;4961475;28;20030;-66
2021/10/30 09:36:17;;;;;;;8.57;5.03;;;11.90;99.90;;;;;;4979004;28;20030;-68
2021/10/30 09:38:47;;;;;;;9.00;4.85;;;11.80;99.90;;;;;;4978498;28;20026;-67
2021/10/30 09:41:25;;;;;;;10.40;5.40;;;11.80;99.90;;;;;;4977680;28;20051;-67
2021/10/30 09:43:56;;;;;;;10.63;5.97;;;11.80;99.90;;;;;;4978281;28;20033;-67
2021/10/30 09:46:25;;;;;;;8.70;5.32;;;11.70;99.90;;;;;;4960613;28;20319;-67
2021/10/30 09:48:53;;;;;;;9.27;5.07;;;11.80;99.90;;;;;;4978053;28;20344;-67
2021/10/30 09:51:35;;;;;;;11.65;6.38;;;11.70;99.90;;;;;;4977404;28;20034;-67
2021/10/30 09:54:08;;;;;;;8.57;6.10;;;11.70;99.90;;;;;;4977583;28;20070;-66
2021/10/30 09:56:51;;;;;;;11.23;5.93;;;11.70;99.90;;;;;;4978378;28;20420;-67
2021/10/30 09:59:19;;;;;;;11.10;6.32;;;11.70;99.90;;;;;;4981332;28;20055;-69
2021/10/30 10:01:51;;;;;;;10.88;5.80;;;11.80;99.90;;;;;;4981774;28;20030;-68
2021/10/30 10:04:20;;;;;;;12.13;6.85;;;11.80;99.90;;;;;;4982228;28;20422;-68
2021/10/30 10:06:50;;;;;;;15.75;5.70;;;11.80;99.90;;;;;;4983268;28;20027;-70
2021/10/30 10:09:18;;;;;;;11.32;6.00;;;11.80;99.90;;;;;;4982591;28;20030;-70
2021/10/30 10:11:49;;;;;;;11.35;5.85;;;11.80;99.90;;;;;;4982134;28;20030;-69
2021/10/30 10:14:22;;;;;;;14.05;6.88;;;11.80;99.90;;;;;;4982456;28;20027;-69
2021/10/30 10:16:51;;;;;;;12.30;6.72;;;11.80;99.90;;;;;;4982106;28;20030;-70
2021/10/30 10:19:23;;;;;;;12.57;7.03;;;11.80;99.90;;;;;;4982528;28;20019;-70
2021/10/30 10:21:55;;;;;;;13.45;7.28;;;11.80;99.90;;;;;;4981727;28;20471;-69
2021/10/30 10:24:38;;;;;;;12.07;6.45;;;11.80;99.90;;;;;;4981461;28;20031;-68
2021/10/30 10:27:07;;;;;;;13.25;7.13;;;11.80;99.90;;;;;;4980823;28;20031;-70
2021/10/30 10:29:43;;;;;;;11.85;6.88;;;11.80;99.90;;;;;;4981488;28;20109;-69
2021/10/30 10:32:19;;;;;;;;;;;11.80;99.90;;;;;;4980928;28;20018;-69
2021/10/30 10:34:48;;;;;;;15.10;8.00;;;11.80;99.90;;;;;;4963446;28;20306;-69
2021/10/30 10:37:17;;;;;;;11.88;7.50;;;11.80;99.90;;;;;;4963481;28;20033;-69
2021/10/30 10:39:47;;;;;;;13.90;8.23;;;11.80;99.90;;;;;;4981058;28;20031;-69
2021/10/30 10:42:16;;;;;;;14.45;8.45;;;11.80;99.90;;;;;;4980603;28;20019;-71
2021/10/30 10:44:44;;;;;;;17.15;9.38;;;11.80;99.90;;;;;;4981061;28;20027;-68
2021/10/30 10:47:38;;;;;;;14.38;8.55;;;11.80;99.90;;;;;;4981695;28;20026;-70
2021/10/30 10:50:27;;;;;;;17.63;9.05;;;11.80;99.90;;;;;;4981697;28;20074;-69
2021/10/30 10:53:01;;;;;;;15.77;8.98;;;11.80;99.90;;;;;;4981255;28;20027;-69
2021/10/30 10:55:30;;;;;;;16.63;8.77;;;11.80;99.90;;;;;;4981660;28;20035;-69
2021/10/30 10:58:04;;;;;;;18.45;9.38;;;11.80;99.90;;;;;;4981576;28;20027;-69
2021/10/30 11:00:32;;;;;;;16.38;9.13;;;11.80;99.90;;;;;;4981709;28;20097;-69
2021/10/30 11:03:01;;;;;;;17.70;9.93;;;11.80;99.90;;;;;;4981162;28;20023;-69
2021/10/30 11:05:36;;;;;;;15.60;8.93;;;11.80;99.90;;;;;;4980757;28;20146;-68
2021/10/30 11:08:10;;;;;;;19.25;10.38;;;11.80;99.90;;;;;;4980324;28;20030;-68
2021/10/30 11:10:44;;;;;;;21.55;12.02;;;11.80;99.90;;;;;;4980702;28;20022;-69
2021/10/30 11:13:20;;;;;;;17.63;10.40;;;11.80;99.90;;;;;;4980178;28;20546;-68
2021/10/30 11:15:56;;;;;;;;;;;11.80;99.90;;;;;;4980227;28;20027;-68
2021/10/30 11:18:36;;;;;;;18.33;10.90;;;11.80;99.90;;;;;;4979696;28;19906;-68
2021/10/30 11:21:29;;;;;;;22.33;10.85;;;11.80;99.90;;;;;;4979951;28;20304;-68
2021/10/30 11:24:00;;;;;;;16.58;9.93;;;11.80;99.90;;;;;;4979846;28;20380;-68
2021/10/30 11:26:30;;;;;;;21.23;10.77;;;11.80;99.90;;;;;;4979420;28;20335;-69
2021/10/30 11:29:16;;;;;;;18.52;11.05;;;11.90;99.90;;;;;;4963412;28;20061;-68
2021/10/30 11:31:51;;;;;;;21.23;11.50;;;11.90;99.60;;;;;;4980521;28;20023;-68
2021/10/30 11:34:20;;;;;;;23.75;11.70;;;11.90;99.80;;;;;;4980718;28;20030;-66
2021/10/30 11:36:48;;;;;;;18.58;11.23;;;11.90;99.50;;;;;;4980625;28;20019;-66
2021/10/30 11:39:16;;;;;;;22.38;11.07;;;11.90;99.40;;;;;;4981081;28;20458;-70
2021/10/30 11:41:45;;;;;;;19.25;11.50;;;11.90;99.30;;;;;;4980146;28;20055;-67
2021/10/30 11:44:15;;;;;;;21.88;12.02;;;11.90;99.50;;;;;;4963483;28;20061;-68
2021/10/30 11:46:55;;;;;;;20.50;11.25;;;12.00;99.50;;;;;;4980541;28;20081;-67
2021/10/30 11:49:34;;;;;;;22.38;11.38;;;11.90;99.50;;;;;;4962153;28;20057;-68
2021/10/30 11:52:09;;;;;;;28.10;11.85;;;12.00;99.70;;;;;;4979407;28;20027;-68
2021/10/30 11:54:40;;;;;;;26.45;12.32;;;11.90;99.80;;;;;;4980166;28;20027;-68
2021/10/30 11:57:11;;;;;;;16.95;10.95;;;11.90;99.90;;;;;;4979319;28;20026;-68
2021/10/30 11:59:59;;;;;;;22.73;13.07;;;11.90;99.90;;;;;;4979341;28;20034;-67
2021/10/30 12:02:27;;;;;;;24.67;12.18;;;11.90;99.90;;;;;;4979337;28;20113;-68
2021/10/30 12:04:57;;;;;;;25.67;12.18;;;11.90;99.90;;;;;;4979368;28;20031;-69
2021/10/30 12:07:27;;;;;;;19.50;11.07;;;11.80;99.90;;;;;;4979355;28;20345;-68
2021/10/30 12:10:00;;;;;;;21.00;12.75;;;11.80;99.90;;;;;;4979309;28;20030;-68
2021/10/30 12:12:28;;;;;;;20.85;12.00;;;11.90;99.90;;;;;;4979936;28;20055;-67
2021/10/30 12:14:57;;;;;;;23.02;13.15;;;11.90;99.90;;;;;;4979963;28;20019;-68
2021/10/30 12:17:28;;;;;;;21.65;12.40;;;11.90;99.90;;;;;;4979982;28;20045;-68
2021/10/30 12:20:10;;;;;;;19.63;11.73;;;12.00;99.90;;;;;;4979061;28;20154;-67
2021/10/30 12:22:45;;;;;;;20.88;11.45;;;11.90;99.90;;;;;;4979933;28;20023;-68
2021/10/30 12:25:15;;;;;;;22.50;11.52;;;11.90;99.90;;;;;;4979587;28;20027;-69
2021/10/30 12:27:48;;;;;;;24.70;12.50;;;11.90;99.90;;;;;;4979907;28;20408;-69
2021/10/30 12:30:19;;;;;;;21.10;11.43;;;11.90;99.90;;;;;;4979849;28;20034;-67
2021/10/30 12:32:48;;;;;;;19.90;12.23;;;11.90;99.90;;;;;;4961320;28;20359;-67
2021/10/30 12:35:27;;;;;;;18.92;11.90;;;11.80;99.90;;;;;;4978399;28;20031;-67
2021/10/30 12:38:18;;;;;;;21.83;12.77;;;11.80;99.90;;;;;;4978685;28;20105;-69
2021/10/30 12:40:51;;;;;;;21.73;12.63;;;11.80;99.90;;;;;;4957819;29;20051;-68
2021/10/30 12:43:26;;;;;;;20.33;11.98;;;11.70;99.90;;;;;;4958017;29;20027;-68
2021/10/30 12:46:01;;;;;;;21.05;12.25;;;11.70;99.90;;;;;;4958954;29;20049;-69
2021/10/30 12:48:40;;;;;;;21.13;13.43;;;11.60;99.90;;;;;;4958240;28;20039;-68
2021/10/30 12:51:19;;;;;;;19.80;11.55;;;11.60;99.90;;;;;;4959388;29;20486;-68
2021/10/30 12:53:51;;;;;;;19.08;12.00;;;11.60;99.90;;;;;;4960290;29;20031;-67
2021/10/30 12:56:22;;;;;;;23.95;12.77;;;11.60;99.90;;;;;;4960256;29;20054;-68
2021/10/30 12:59:03;;;;;;;21.30;12.95;;;11.50;99.90;;;;;;4959880;28;20031;-68